sensor_id;sensor_type;location;lat;lon;timestamp;P1;durP1;ratioP1;P2;durP2;ratioP2
7142;SDS011;3613;48.902;9.204;2023-03-23T00:02:15;2.57;;;1.60;;
7142;SDS011;3613;48.902;9.204;2023-03-23T00:04:41;2.57;;;2.00;;
7142;SDS011;3613;48.902;9.204;2023-03-23T00:07:07;1.70;;;1.60;;
7142;SDS011;3613;48.902;9.204;2023-03-23T00:09:33;3.40;;;2.00;;
7142;SDS011;3613;48.902;9.204;2023-03-23T00:11:59;1.90;;;1.53;;
7142;SDS011;3613;48.902;9.204;2023-03-23T00:14:31;2.33;;;1.43;;
7142;SDS011;3613;48.902;9.204;2023-03-23T00:17:06;2.83;;;1.90;;
7142;SDS011;3613;48.902;9.204;2023-03-23T00:19:34;2.03;;;1.43;;
7142;SDS011;3613;48.902;9.204;2023-03-23T00:22:10;2.00;;;1.60;;
7142;SDS011;3613;48.902;9.204;2023-03-23T00:24:40;2.37;;;1.47;;
7142;SDS011;3613;48.902;9.204;2023-03-23T00:27:10;1.53;;;1.40;;
7142;SDS011;3613;48.902;9.204;2023-03-23T00:29:37;2.87;;;1.57;;
7142;SDS011;3613;48.902;9.204;2023-03-23T00:32:07;3.40;;;1.80;;
7142;SDS011;3613;48.902;9.204;2023-03-23T00:34:39;2.03;;;1.40;;
7142;SDS011;3613;48.902;9.204;2023-03-23T00:37:10;1.60;;;1.50;;
7142;SDS011;3613;48.902;9.204;2023-03-23T00:39:38;2.30;;;1.50;;
7142;SDS011;3613;48.902;9.204;2023-03-23T00:42:10;2.80;;;1.60;;
7142;SDS011;3613;48.902;9.204;2023-03-23T00:44:38;2.07;;;1.53;;
7142;SDS011;3613;48.902;9.204;2023-03-23T00:47:04;3.63;;;1.60;;
7142;SDS011;3613;48.902;9.204;2023-03-23T00:49:34;2.30;;;1.40;;
7142;SDS011;3613;48.902;9.204;2023-03-23T00:52:01;2.10;;;1.50;;
7142;SDS011;3613;48.902;9.204;2023-03-23T00:54:30;2.30;;;1.40;;
7142;SDS011;3613;48.902;9.204;2023-03-23T00:56:56;1.57;;;1.47;;
7142;SDS011;3613;48.902;9.204;2023-03-23T00:59:24;2.50;;;1.60;;
7142;SDS011;3613;48.902;9.204;2023-03-23T01:01:52;1.70;;;1.43;;
7142;SDS011;3613;48.902;9.204;2023-03-23T01:04:20;2.00;;;1.80;;
7142;SDS011;3613;48.902;9.204;2023-03-23T01:06:50;1.77;;;1.60;;
7142;SDS011;3613;48.902;9.204;2023-03-23T01:09:16;3.63;;;2.00;;
7142;SDS011;3613;48.902;9.204;2023-03-23T01:11:48;2.77;;;1.70;;
7142;SDS011;3613;48.902;9.204;2023-03-23T01:14:21;2.83;;;1.50;;
7142;SDS011;3613;48.902;9.204;2023-03-23T01:16:47;2.53;;;1.50;;
7142;SDS011;3613;48.902;9.204;2023-03-23T01:19:12;2.47;;;1.60;;
7142;SDS011;3613;48.902;9.204;2023-03-23T01:21:40;1.50;;;1.40;;
7142;SDS011;3613;48.902;9.204;2023-03-23T01:24:08;3.17;;;1.77;;
7142;SDS011;3613;48.902;9.204;2023-03-23T01:26:34;2.10;;;1.53;;
7142;SDS011;3613;48.902;9.204;2023-03-23T01:29:00;2.13;;;1.40;;
7142;SDS011;3613;48.902;9.204;2023-03-23T01:31:26;1.90;;;1.50;;
7142;SDS011;3613;48.902;9.204;2023-03-23T01:33:51;2.43;;;1.40;;
7142;SDS011;3613;48.902;9.204;2023-03-23T01:36:25;3.30;;;1.67;;
7142;SDS011;3613;48.902;9.204;2023-03-23T01:38:53;2.60;;;1.73;;
7142;SDS011;3613;48.902;9.204;2023-03-23T01:41:20;2.57;;;1.40;;
7142;SDS011;3613;48.902;9.204;2023-03-23T01:46:41;2.80;;;1.70;;
7142;SDS011;3613;48.902;9.204;2023-03-23T01:51:44;2.90;;;2.20;;
7142;SDS011;3613;48.902;9.204;2023-03-23T01:54:13;3.17;;;2.07;;
7142;SDS011;3613;48.902;9.204;2023-03-23T01:56:48;3.83;;;2.27;;
7142;SDS011;3613;48.902;9.204;2023-03-23T01:59:21;3.03;;;2.20;;
7142;SDS011;3613;48.902;9.204;2023-03-23T02:01:48;4.03;;;2.37;;
7142;SDS011;3613;48.902;9.204;2023-03-23T02:04:17;4.37;;;2.60;;
7142;SDS011;3613;48.902;9.204;2023-03-23T02:06:43;3.90;;;2.37;;
7142;SDS011;3613;48.902;9.204;2023-03-23T02:09:10;2.83;;;2.53;;
7142;SDS011;3613;48.902;9.204;2023-03-23T02:11:39;3.83;;;2.53;;
7142;SDS011;3613;48.902;9.204;2023-03-23T02:14:05;3.53;;;2.17;;
7142;SDS011;3613;48.902;9.204;2023-03-23T02:33:47;2.07;;;1.70;;
7142;SDS011;3613;48.902;9.204;2023-03-23T02:36:32;2.77;;;1.80;;
7142;SDS011;3613;48.902;9.204;2023-03-23T02:42:13;2.03;;;1.60;;
7142;SDS011;3613;48.902;9.204;2023-03-23T02:44:44;2.70;;;1.87;;
7142;SDS011;3613;48.902;9.204;2023-03-23T02:47:21;3.43;;;2.03;;
7142;SDS011;3613;48.902;9.204;2023-03-23T02:49:51;3.73;;;2.03;;
7142;SDS011;3613;48.902;9.204;2023-03-23T02:52:20;2.83;;;1.87;;
7142;SDS011;3613;48.902;9.204;2023-03-23T02:54:49;1.70;;;1.60;;
7142;SDS011;3613;48.902;9.204;2023-03-23T02:57:17;2.43;;;1.87;;
7142;SDS011;3613;48.902;9.204;2023-03-23T02:59:43;3.67;;;1.83;;
7142;SDS011;3613;48.902;9.204;2023-03-23T03:02:14;1.80;;;1.70;;
7142;SDS011;3613;48.902;9.204;2023-03-23T03:04:41;3.37;;;1.90;;
7142;SDS011;3613;48.902;9.204;2023-03-23T03:07:42;2.47;;;2.00;;
7142;SDS011;3613;48.902;9.204;2023-03-23T03:10:35;3.80;;;2.30;;
7142;SDS011;3613;48.902;9.204;2023-03-23T03:16:00;3.50;;;1.90;;
7142;SDS011;3613;48.902;9.204;2023-03-23T03:21:26;3.73;;;2.03;;
7142;SDS011;3613;48.902;9.204;2023-03-23T03:23:55;2.33;;;2.10;;
7142;SDS011;3613;48.902;9.204;2023-03-23T03:26:26;3.37;;;2.40;;
7142;SDS011;3613;48.902;9.204;2023-03-23T03:28:56;3.37;;;2.40;;
7142;SDS011;3613;48.902;9.204;2023-03-23T03:31:40;3.40;;;2.10;;
7142;SDS011;3613;48.902;9.204;2023-03-23T03:34:10;3.13;;;2.03;;
7142;SDS011;3613;48.902;9.204;2023-03-23T03:36:45;2.27;;;2.00;;
7142;SDS011;3613;48.902;9.204;2023-03-23T03:39:15;3.33;;;2.20;;
7142;SDS011;3613;48.902;9.204;2023-03-23T03:41:42;3.33;;;2.20;;
7142;SDS011;3613;48.902;9.204;2023-03-23T03:44:08;5.00;;;2.53;;
7142;SDS011;3613;48.902;9.204;2023-03-23T03:46:37;4.53;;;2.20;;
7142;SDS011;3613;48.902;9.204;2023-03-23T03:49:03;2.63;;;2.40;;
7142;SDS011;3613;48.902;9.204;2023-03-23T03:51:31;2.73;;;2.23;;
7142;SDS011;3613;48.902;9.204;2023-03-23T03:54:00;2.70;;;2.23;;
7142;SDS011;3613;48.902;9.204;2023-03-23T03:56:26;4.43;;;2.30;;
7142;SDS011;3613;48.902;9.204;2023-03-23T03:58:56;2.87;;;2.17;;
7142;SDS011;3613;48.902;9.204;2023-03-23T04:01:22;2.77;;;2.13;;
7142;SDS011;3613;48.902;9.204;2023-03-23T04:03:49;5.03;;;2.20;;
7142;SDS011;3613;48.902;9.204;2023-03-23T04:06:15;3.23;;;2.47;;
7142;SDS011;3613;48.902;9.204;2023-03-23T04:08:42;3.57;;;2.40;;
7142;SDS011;3613;48.902;9.204;2023-03-23T04:11:12;4.73;;;2.60;;
7142;SDS011;3613;48.902;9.204;2023-03-23T04:13:42;3.83;;;2.40;;
7142;SDS011;3613;48.902;9.204;2023-03-23T04:16:09;4.00;;;2.77;;
7142;SDS011;3613;48.902;9.204;2023-03-23T04:18:35;3.37;;;2.27;;
7142;SDS011;3613;48.902;9.204;2023-03-23T04:21:01;3.10;;;2.30;;
7142;SDS011;3613;48.902;9.204;2023-03-23T04:23:28;4.27;;;2.30;;
7142;SDS011;3613;48.902;9.204;2023-03-23T04:25:56;3.50;;;2.23;;
7142;SDS011;3613;48.902;9.204;2023-03-23T04:28:23;3.80;;;2.40;;
7142;SDS011;3613;48.902;9.204;2023-03-23T04:30:55;2.93;;;2.10;;
7142;SDS011;3613;48.902;9.204;2023-03-23T04:33:22;2.73;;;2.03;;
7142;SDS011;3613;48.902;9.204;2023-03-23T04:35:50;2.23;;;1.73;;
7142;SDS011;3613;48.902;9.204;2023-03-23T04:38:17;3.67;;;2.27;;
7142;SDS011;3613;48.902;9.204;2023-03-23T04:40:46;2.17;;;1.93;;
7142;SDS011;3613;48.902;9.204;2023-03-23T04:43:14;4.37;;;2.07;;
7142;SDS011;3613;48.902;9.204;2023-03-23T04:45:40;2.53;;;1.70;;
7142;SDS011;3613;48.902;9.204;2023-03-23T04:48:10;2.50;;;1.63;;
7142;SDS011;3613;48.902;9.204;2023-03-23T04:50:38;2.87;;;1.93;;
7142;SDS011;3613;48.902;9.204;2023-03-23T04:53:06;3.13;;;2.10;;
7142;SDS011;3613;48.902;9.204;2023-03-23T04:55:34;3.07;;;2.17;;
7142;SDS011;3613;48.902;9.204;2023-03-23T04:58:02;2.40;;;2.00;;
7142;SDS011;3613;48.902;9.204;2023-03-23T05:00:30;2.47;;;1.90;;
7142;SDS011;3613;48.902;9.204;2023-03-23T05:02:59;2.57;;;1.90;;
7142;SDS011;3613;48.902;9.204;2023-03-23T05:05:25;3.10;;;2.00;;
7142;SDS011;3613;48.902;9.204;2023-03-23T05:07:54;2.73;;;2.13;;
7142;SDS011;3613;48.902;9.204;2023-03-23T05:10:20;4.70;;;2.03;;
7142;SDS011;3613;48.902;9.204;2023-03-23T05:12:45;2.80;;;1.93;;
7142;SDS011;3613;48.902;9.204;2023-03-23T05:15:14;2.33;;;2.13;;
7142;SDS011;3613;48.902;9.204;2023-03-23T05:17:41;3.27;;;1.80;;
7142;SDS011;3613;48.902;9.204;2023-03-23T05:20:10;2.90;;;2.20;;
7142;SDS011;3613;48.902;9.204;2023-03-23T05:22:43;4.60;;;2.30;;
7142;SDS011;3613;48.902;9.204;2023-03-23T05:25:17;3.17;;;2.30;;
7142;SDS011;3613;48.902;9.204;2023-03-23T05:27:46;5.97;;;2.10;;
7142;SDS011;3613;48.902;9.204;2023-03-23T05:30:17;2.57;;;1.90;;
7142;SDS011;3613;48.902;9.204;2023-03-23T05:32:45;3.63;;;2.00;;
7142;SDS011;3613;48.902;9.204;2023-03-23T05:35:15;3.00;;;2.30;;
7142;SDS011;3613;48.902;9.204;2023-03-23T05:37:42;3.90;;;2.33;;
7142;SDS011;3613;48.902;9.204;2023-03-23T05:40:11;5.67;;;2.30;;
7142;SDS011;3613;48.902;9.204;2023-03-23T05:42:38;3.30;;;2.43;;
7142;SDS011;3613;48.902;9.204;2023-03-23T05:45:09;2.83;;;2.10;;
7142;SDS011;3613;48.902;9.204;2023-03-23T05:47:36;2.80;;;2.13;;
7142;SDS011;3613;48.902;9.204;2023-03-23T05:50:02;2.40;;;2.20;;
7142;SDS011;3613;48.902;9.204;2023-03-23T05:52:30;2.60;;;2.20;;
7142;SDS011;3613;48.902;9.204;2023-03-23T05:54:57;3.73;;;2.27;;
7142;SDS011;3613;48.902;9.204;2023-03-23T05:57:25;6.00;;;2.90;;
7142;SDS011;3613;48.902;9.204;2023-03-23T05:59:51;4.80;;;3.13;;
7142;SDS011;3613;48.902;9.204;2023-03-23T06:02:20;5.27;;;2.70;;
7142;SDS011;3613;48.902;9.204;2023-03-23T06:04:48;2.13;;;1.73;;
7142;SDS011;3613;48.902;9.204;2023-03-23T06:07:22;2.80;;;2.00;;
7142;SDS011;3613;48.902;9.204;2023-03-23T06:09:49;2.33;;;1.90;;
7142;SDS011;3613;48.902;9.204;2023-03-23T06:12:15;2.43;;;1.80;;
7142;SDS011;3613;48.902;9.204;2023-03-23T06:14:45;3.50;;;1.90;;
7142;SDS011;3613;48.902;9.204;2023-03-23T06:17:11;2.33;;;1.93;;
7142;SDS011;3613;48.902;9.204;2023-03-23T06:19:37;4.83;;;1.93;;
7142;SDS011;3613;48.902;9.204;2023-03-23T06:22:03;2.87;;;2.17;;
7142;SDS011;3613;48.902;9.204;2023-03-23T06:24:30;2.83;;;2.03;;
7142;SDS011;3613;48.902;9.204;2023-03-23T06:26:59;3.77;;;1.73;;
7142;SDS011;3613;48.902;9.204;2023-03-23T06:29:25;2.57;;;1.60;;
7142;SDS011;3613;48.902;9.204;2023-03-23T06:31:52;2.73;;;1.73;;
7142;SDS011;3613;48.902;9.204;2023-03-23T06:34:21;3.63;;;2.10;;
7142;SDS011;3613;48.902;9.204;2023-03-23T06:36:48;3.97;;;1.83;;
7142;SDS011;3613;48.902;9.204;2023-03-23T06:39:13;3.60;;;1.70;;
7142;SDS011;3613;48.902;9.204;2023-03-23T06:41:39;3.93;;;1.70;;
7142;SDS011;3613;48.902;9.204;2023-03-23T06:44:07;5.67;;;2.00;;
7142;SDS011;3613;48.902;9.204;2023-03-23T06:46:33;3.07;;;2.20;;
7142;SDS011;3613;48.902;9.204;2023-03-23T06:49:02;2.60;;;2.07;;
7142;SDS011;3613;48.902;9.204;2023-03-23T06:51:30;3.23;;;1.80;;
7142;SDS011;3613;48.902;9.204;2023-03-23T06:53:55;4.43;;;2.10;;
7142;SDS011;3613;48.902;9.204;2023-03-23T06:56:24;3.33;;;2.20;;
7142;SDS011;3613;48.902;9.204;2023-03-23T06:58:50;3.53;;;2.47;;
7142;SDS011;3613;48.902;9.204;2023-03-23T07:01:18;2.90;;;2.27;;
7142;SDS011;3613;48.902;9.204;2023-03-23T07:03:46;3.37;;;2.30;;
7142;SDS011;3613;48.902;9.204;2023-03-23T07:06:14;4.03;;;2.00;;
7142;SDS011;3613;48.902;9.204;2023-03-23T07:08:40;1.97;;;1.80;;
7142;SDS011;3613;48.902;9.204;2023-03-23T07:11:05;2.77;;;2.17;;
7142;SDS011;3613;48.902;9.204;2023-03-23T07:13:35;2.40;;;2.07;;
7142;SDS011;3613;48.902;9.204;2023-03-23T07:16:00;2.40;;;1.90;;
7142;SDS011;3613;48.902;9.204;2023-03-23T07:18:28;2.47;;;1.90;;
7142;SDS011;3613;48.902;9.204;2023-03-23T07:20:54;3.30;;;2.10;;
7142;SDS011;3613;48.902;9.204;2023-03-23T07:23:21;4.47;;;2.20;;
7142;SDS011;3613;48.902;9.204;2023-03-23T07:25:47;5.87;;;2.47;;
7142;SDS011;3613;48.902;9.204;2023-03-23T07:28:13;3.40;;;2.00;;
7142;SDS011;3613;48.902;9.204;2023-03-23T07:30:42;2.50;;;1.90;;
7142;SDS011;3613;48.902;9.204;2023-03-23T07:33:10;1.83;;;1.70;;
7142;SDS011;3613;48.902;9.204;2023-03-23T07:35:36;4.23;;;2.20;;
7142;SDS011;3613;48.902;9.204;2023-03-23T07:38:04;5.23;;;2.20;;
7142;SDS011;3613;48.902;9.204;2023-03-23T07:40:31;4.13;;;1.97;;
7142;SDS011;3613;48.902;9.204;2023-03-23T07:43:00;5.30;;;2.60;;
7142;SDS011;3613;48.902;9.204;2023-03-23T07:45:27;5.47;;;2.20;;
7142;SDS011;3613;48.902;9.204;2023-03-23T07:47:53;3.40;;;2.30;;
7142;SDS011;3613;48.902;9.204;2023-03-23T07:50:21;4.50;;;2.10;;
7142;SDS011;3613;48.902;9.204;2023-03-23T07:52:49;3.57;;;2.40;;
7142;SDS011;3613;48.902;9.204;2023-03-23T07:55:20;8.10;;;2.20;;
7142;SDS011;3613;48.902;9.204;2023-03-23T07:57:49;2.60;;;2.10;;
7142;SDS011;3613;48.902;9.204;2023-03-23T08:00:18;4.70;;;2.60;;
7142;SDS011;3613;48.902;9.204;2023-03-23T08:02:52;2.23;;;2.03;;
7142;SDS011;3613;48.902;9.204;2023-03-23T08:05:25;2.97;;;2.17;;
7142;SDS011;3613;48.902;9.204;2023-03-23T08:07:52;3.27;;;1.97;;
7142;SDS011;3613;48.902;9.204;2023-03-23T08:10:19;3.73;;;2.30;;
7142;SDS011;3613;48.902;9.204;2023-03-23T08:12:50;5.60;;;2.13;;
7142;SDS011;3613;48.902;9.204;2023-03-23T08:15:17;3.37;;;2.33;;
7142;SDS011;3613;48.902;9.204;2023-03-23T08:17:43;3.27;;;1.87;;
7142;SDS011;3613;48.902;9.204;2023-03-23T08:20:12;2.93;;;1.90;;
7142;SDS011;3613;48.902;9.204;2023-03-23T08:22:42;3.20;;;2.00;;
7142;SDS011;3613;48.902;9.204;2023-03-23T08:25:14;5.97;;;2.03;;
7142;SDS011;3613;48.902;9.204;2023-03-23T08:27:42;3.10;;;2.00;;
7142;SDS011;3613;48.902;9.204;2023-03-23T08:30:13;2.30;;;1.90;;
7142;SDS011;3613;48.902;9.204;2023-03-23T08:32:41;3.37;;;1.80;;
7142;SDS011;3613;48.902;9.204;2023-03-23T08:35:08;3.70;;;1.80;;
7142;SDS011;3613;48.902;9.204;2023-03-23T08:37:37;2.87;;;1.80;;
7142;SDS011;3613;48.902;9.204;2023-03-23T08:40:04;3.10;;;1.90;;
7142;SDS011;3613;48.902;9.204;2023-03-23T08:42:35;3.47;;;1.90;;
7142;SDS011;3613;48.902;9.204;2023-03-23T08:45:08;3.00;;;1.87;;
7142;SDS011;3613;48.902;9.204;2023-03-23T08:47:36;3.33;;;1.70;;
7142;SDS011;3613;48.902;9.204;2023-03-23T08:50:03;3.80;;;1.80;;
7142;SDS011;3613;48.902;9.204;2023-03-23T08:52:32;2.50;;;1.73;;
7142;SDS011;3613;48.902;9.204;2023-03-23T08:55:00;3.43;;;2.07;;
7142;SDS011;3613;48.902;9.204;2023-03-23T08:57:26;4.17;;;2.20;;
7142;SDS011;3613;48.902;9.204;2023-03-23T08:59:52;4.07;;;1.93;;
7142;SDS011;3613;48.902;9.204;2023-03-23T09:02:25;3.70;;;2.10;;
7142;SDS011;3613;48.902;9.204;2023-03-23T09:04:51;6.33;;;2.40;;
7142;SDS011;3613;48.902;9.204;2023-03-23T09:07:18;3.23;;;1.90;;
7142;SDS011;3613;48.902;9.204;2023-03-23T09:09:46;2.67;;;2.17;;
7142;SDS011;3613;48.902;9.204;2023-03-23T09:12:14;3.07;;;2.50;;
7142;SDS011;3613;48.902;9.204;2023-03-23T09:14:40;4.33;;;2.20;;
7142;SDS011;3613;48.902;9.204;2023-03-23T09:17:06;3.67;;;1.90;;
7142;SDS011;3613;48.902;9.204;2023-03-23T09:19:34;3.60;;;2.00;;
7142;SDS011;3613;48.902;9.204;2023-03-23T09:22:03;3.50;;;2.40;;
7142;SDS011;3613;48.902;9.204;2023-03-23T09:24:29;3.00;;;1.90;;
7142;SDS011;3613;48.902;9.204;2023-03-23T09:26:55;2.60;;;2.10;;
7142;SDS011;3613;48.902;9.204;2023-03-23T09:29:21;2.37;;;2.00;;
7142;SDS011;3613;48.902;9.204;2023-03-23T09:31:46;3.10;;;2.10;;
7142;SDS011;3613;48.902;9.204;2023-03-23T09:34:14;3.33;;;2.10;;
7142;SDS011;3613;48.902;9.204;2023-03-23T09:36:42;4.40;;;2.17;;
7142;SDS011;3613;48.902;9.204;2023-03-23T09:39:11;3.13;;;2.20;;
7142;SDS011;3613;48.902;9.204;2023-03-23T09:50:03;2.73;;;2.00;;
7142;SDS011;3613;48.902;9.204;2023-03-23T09:52:43;4.33;;;2.17;;
7142;SDS011;3613;48.902;9.204;2023-03-23T09:55:30;2.43;;;2.07;;
7142;SDS011;3613;48.902;9.204;2023-03-23T09:57:59;4.73;;;2.13;;
7142;SDS011;3613;48.902;9.204;2023-03-23T10:00:32;2.63;;;1.87;;
7142;SDS011;3613;48.902;9.204;2023-03-23T10:03:16;2.90;;;2.30;;
7142;SDS011;3613;48.902;9.204;2023-03-23T10:08:19;2.70;;;2.00;;
7142;SDS011;3613;48.902;9.204;2023-03-23T10:16:43;3.60;;;2.10;;
7142;SDS011;3613;48.902;9.204;2023-03-23T10:22:10;3.67;;;2.00;;
7142;SDS011;3613;48.902;9.204;2023-03-23T10:24:49;3.57;;;2.40;;
7142;SDS011;3613;48.902;9.204;2023-03-23T10:30:36;3.03;;;1.80;;
7142;SDS011;3613;48.902;9.204;2023-03-23T10:35:45;2.03;;;1.77;;
7142;SDS011;3613;48.902;9.204;2023-03-23T10:38:14;2.43;;;1.60;;
7142;SDS011;3613;48.902;9.204;2023-03-23T10:40:54;2.73;;;2.00;;
7142;SDS011;3613;48.902;9.204;2023-03-23T10:43:34;2.20;;;1.60;;
7142;SDS011;3613;48.902;9.204;2023-03-23T10:46:01;2.57;;;1.60;;
7142;SDS011;3613;48.902;9.204;2023-03-23T10:48:45;3.67;;;1.80;;
7142;SDS011;3613;48.902;9.204;2023-03-23T10:51:13;3.07;;;2.00;;
7142;SDS011;3613;48.902;9.204;2023-03-23T10:53:45;1.63;;;1.40;;
7142;SDS011;3613;48.902;9.204;2023-03-23T10:59:11;2.43;;;1.90;;
7142;SDS011;3613;48.902;9.204;2023-03-23T11:01:47;2.47;;;1.50;;
7142;SDS011;3613;48.902;9.204;2023-03-23T11:04:16;2.17;;;1.60;;
7142;SDS011;3613;48.902;9.204;2023-03-23T11:06:44;3.13;;;1.60;;
7142;SDS011;3613;48.902;9.204;2023-03-23T11:09:17;3.00;;;1.40;;
7142;SDS011;3613;48.902;9.204;2023-03-23T11:11:50;3.13;;;1.40;;
7142;SDS011;3613;48.902;9.204;2023-03-23T11:14:19;1.53;;;1.43;;
7142;SDS011;3613;48.902;9.204;2023-03-23T11:16:56;1.77;;;1.47;;
7142;SDS011;3613;48.902;9.204;2023-03-23T11:19:27;2.80;;;1.57;;
7142;SDS011;3613;48.902;9.204;2023-03-23T11:22:06;3.20;;;1.60;;
7142;SDS011;3613;48.902;9.204;2023-03-23T11:24:35;3.07;;;1.63;;
7142;SDS011;3613;48.902;9.204;2023-03-23T11:27:05;4.80;;;1.73;;
7142;SDS011;3613;48.902;9.204;2023-03-23T11:29:36;1.87;;;1.63;;
7142;SDS011;3613;48.902;9.204;2023-03-23T11:32:11;2.00;;;1.70;;
7142;SDS011;3613;48.902;9.204;2023-03-23T11:34:46;2.20;;;1.53;;
7142;SDS011;3613;48.902;9.204;2023-03-23T11:40:17;1.70;;;1.50;;
7142;SDS011;3613;48.902;9.204;2023-03-23T11:42:49;2.20;;;1.50;;
7142;SDS011;3613;48.902;9.204;2023-03-23T11:45:36;3.47;;;2.10;;
7142;SDS011;3613;48.902;9.204;2023-03-23T11:51:01;2.30;;;1.83;;
7142;SDS011;3613;48.902;9.204;2023-03-23T11:58:52;2.30;;;1.60;;
7142;SDS011;3613;48.902;9.204;2023-03-23T12:33:39;3.53;;;2.23;;
7142;SDS011;3613;48.902;9.204;2023-03-23T12:36:36;2.33;;;1.90;;
7142;SDS011;3613;48.902;9.204;2023-03-23T12:44:49;4.33;;;2.20;;
7142;SDS011;3613;48.902;9.204;2023-03-23T12:55:38;2.67;;;2.10;;
7142;SDS011;3613;48.902;9.204;2023-03-23T12:58:14;2.77;;;2.10;;
7142;SDS011;3613;48.902;9.204;2023-03-23T13:03:46;2.83;;;2.10;;
7142;SDS011;3613;48.902;9.204;2023-03-23T13:11:47;2.33;;;1.87;;
7142;SDS011;3613;48.902;9.204;2023-03-23T13:28:20;2.30;;;2.07;;
7142;SDS011;3613;48.902;9.204;2023-03-23T13:30:58;3.67;;;2.37;;
7142;SDS011;3613;48.902;9.204;2023-03-23T13:33:29;3.33;;;2.20;;
7142;SDS011;3613;48.902;9.204;2023-03-23T13:36:04;4.50;;;2.40;;
7142;SDS011;3613;48.902;9.204;2023-03-23T13:38:35;3.50;;;2.30;;
7142;SDS011;3613;48.902;9.204;2023-03-23T13:41:06;3.30;;;2.30;;
7142;SDS011;3613;48.902;9.204;2023-03-23T13:43:35;3.13;;;2.10;;
7142;SDS011;3613;48.902;9.204;2023-03-23T13:46:13;4.17;;;2.20;;
7142;SDS011;3613;48.902;9.204;2023-03-23T13:49:02;4.23;;;2.10;;
7142;SDS011;3613;48.902;9.204;2023-03-23T13:56:48;2.50;;;2.30;;
7142;SDS011;3613;48.902;9.204;2023-03-23T14:01:51;3.50;;;2.70;;
7142;SDS011;3613;48.902;9.204;2023-03-23T14:04:30;2.83;;;2.53;;
7142;SDS011;3613;48.902;9.204;2023-03-23T14:07:08;2.97;;;2.70;;
7142;SDS011;3613;48.902;9.204;2023-03-23T14:09:40;4.53;;;2.40;;
7142;SDS011;3613;48.902;9.204;2023-03-23T14:17:17;3.03;;;2.70;;
7142;SDS011;3613;48.902;9.204;2023-03-23T14:19:48;3.67;;;2.30;;
7142;SDS011;3613;48.902;9.204;2023-03-23T14:22:18;4.33;;;2.63;;
7142;SDS011;3613;48.902;9.204;2023-03-23T14:24:49;6.03;;;3.20;;
7142;SDS011;3613;48.902;9.204;2023-03-23T14:29:45;4.37;;;2.60;;
7142;SDS011;3613;48.902;9.204;2023-03-23T14:32:22;4.20;;;2.43;;
7142;SDS011;3613;48.902;9.204;2023-03-23T14:34:52;4.17;;;2.83;;
7142;SDS011;3613;48.902;9.204;2023-03-23T14:37:18;3.70;;;2.70;;
7142;SDS011;3613;48.902;9.204;2023-03-23T14:39:47;2.87;;;2.43;;
7142;SDS011;3613;48.902;9.204;2023-03-23T14:42:28;4.03;;;2.40;;
7142;SDS011;3613;48.902;9.204;2023-03-23T14:44:55;6.43;;;2.60;;
7142;SDS011;3613;48.902;9.204;2023-03-23T14:47:23;3.00;;;2.30;;
7142;SDS011;3613;48.902;9.204;2023-03-23T14:49:53;3.50;;;2.30;;
7142;SDS011;3613;48.902;9.204;2023-03-23T14:52:22;3.47;;;2.20;;
7142;SDS011;3613;48.902;9.204;2023-03-23T14:54:49;2.70;;;2.33;;
7142;SDS011;3613;48.902;9.204;2023-03-23T14:57:16;3.40;;;2.50;;
7142;SDS011;3613;48.902;9.204;2023-03-23T14:59:47;3.23;;;2.23;;
7142;SDS011;3613;48.902;9.204;2023-03-23T15:02:17;5.07;;;2.80;;
7142;SDS011;3613;48.902;9.204;2023-03-23T15:04:53;3.47;;;2.40;;
7142;SDS011;3613;48.902;9.204;2023-03-23T15:07:23;3.50;;;2.33;;
7142;SDS011;3613;48.902;9.204;2023-03-23T15:09:59;3.73;;;2.70;;
7142;SDS011;3613;48.902;9.204;2023-03-23T15:12:26;5.67;;;2.70;;
7142;SDS011;3613;48.902;9.204;2023-03-23T15:14:59;4.67;;;2.80;;
7142;SDS011;3613;48.902;9.204;2023-03-23T15:17:28;7.07;;;2.70;;
7142;SDS011;3613;48.902;9.204;2023-03-23T15:19:57;6.37;;;3.03;;
7142;SDS011;3613;48.902;9.204;2023-03-23T15:22:34;4.60;;;2.73;;
7142;SDS011;3613;48.902;9.204;2023-03-23T15:27:53;4.07;;;2.83;;
7142;SDS011;3613;48.902;9.204;2023-03-23T15:32:51;4.50;;;2.63;;
7142;SDS011;3613;48.902;9.204;2023-03-23T15:35:19;7.10;;;2.60;;
7142;SDS011;3613;48.902;9.204;2023-03-23T15:37:51;2.77;;;2.23;;
7142;SDS011;3613;48.902;9.204;2023-03-23T15:40:26;5.43;;;2.60;;
7142;SDS011;3613;48.902;9.204;2023-03-23T15:43:07;4.97;;;2.80;;
7142;SDS011;3613;48.902;9.204;2023-03-23T15:45:50;3.03;;;2.20;;
7142;SDS011;3613;48.902;9.204;2023-03-23T15:48:21;5.83;;;2.50;;
7142;SDS011;3613;48.902;9.204;2023-03-23T15:50:50;5.00;;;2.80;;
7142;SDS011;3613;48.902;9.204;2023-03-23T15:53:22;3.13;;;2.17;;
7142;SDS011;3613;48.902;9.204;2023-03-23T15:55:57;3.27;;;2.60;;
7142;SDS011;3613;48.902;9.204;2023-03-23T15:58:27;4.57;;;2.90;;
7142;SDS011;3613;48.902;9.204;2023-03-23T16:01:00;4.30;;;3.10;;
7142;SDS011;3613;48.902;9.204;2023-03-23T16:04:16;5.83;;;2.73;;
7142;SDS011;3613;48.902;9.204;2023-03-23T16:06:29;4.10;;;2.60;;
7142;SDS011;3613;48.902;9.204;2023-03-23T16:08:56;6.40;;;2.73;;
7142;SDS011;3613;48.902;9.204;2023-03-23T16:11:23;10.23;;;7.47;;
7142;SDS011;3613;48.902;9.204;2023-03-23T16:13:51;5.57;;;3.27;;
7142;SDS011;3613;48.902;9.204;2023-03-23T16:16:17;7.03;;;3.87;;
7142;SDS011;3613;48.902;9.204;2023-03-23T16:19:19;6.03;;;4.20;;
7142;SDS011;3613;48.902;9.204;2023-03-23T16:21:50;7.37;;;3.77;;
7142;SDS011;3613;48.902;9.204;2023-03-23T16:24:16;6.63;;;3.67;;
7142;SDS011;3613;48.902;9.204;2023-03-23T16:26:42;5.13;;;2.97;;
7142;SDS011;3613;48.902;9.204;2023-03-23T16:29:11;6.10;;;2.50;;
7142;SDS011;3613;48.902;9.204;2023-03-23T16:31:38;5.33;;;2.90;;
7142;SDS011;3613;48.902;9.204;2023-03-23T16:34:06;5.07;;;2.97;;
7142;SDS011;3613;48.902;9.204;2023-03-23T16:36:32;2.83;;;2.43;;
7142;SDS011;3613;48.902;9.204;2023-03-23T16:38:58;3.43;;;2.07;;
7142;SDS011;3613;48.902;9.204;2023-03-23T16:41:26;3.43;;;2.27;;
7142;SDS011;3613;48.902;9.204;2023-03-23T16:43:54;3.67;;;2.53;;
7142;SDS011;3613;48.902;9.204;2023-03-23T16:46:20;3.17;;;2.27;;
7142;SDS011;3613;48.902;9.204;2023-03-23T16:48:48;5.80;;;4.77;;
7142;SDS011;3613;48.902;9.204;2023-03-23T16:51:13;2.63;;;2.30;;
7142;SDS011;3613;48.902;9.204;2023-03-23T16:53:39;3.33;;;2.30;;
7142;SDS011;3613;48.902;9.204;2023-03-23T16:56:07;3.37;;;2.20;;
7142;SDS011;3613;48.902;9.204;2023-03-23T16:58:35;4.17;;;2.23;;
7142;SDS011;3613;48.902;9.204;2023-03-23T17:01:03;4.83;;;2.83;;
7142;SDS011;3613;48.902;9.204;2023-03-23T17:03:30;2.93;;;2.30;;
7142;SDS011;3613;48.902;9.204;2023-03-23T17:05:55;2.80;;;2.23;;
7142;SDS011;3613;48.902;9.204;2023-03-23T17:08:26;4.50;;;2.50;;
7142;SDS011;3613;48.902;9.204;2023-03-23T17:11:00;4.80;;;2.77;;
7142;SDS011;3613;48.902;9.204;2023-03-23T17:13:28;5.07;;;2.30;;
7142;SDS011;3613;48.902;9.204;2023-03-23T17:15:59;3.73;;;2.43;;
7142;SDS011;3613;48.902;9.204;2023-03-23T17:18:24;4.40;;;2.37;;
7142;SDS011;3613;48.902;9.204;2023-03-23T17:20:52;7.87;;;2.70;;
7142;SDS011;3613;48.902;9.204;2023-03-23T17:23:18;2.83;;;2.40;;
7142;SDS011;3613;48.902;9.204;2023-03-23T17:25:45;5.73;;;2.90;;
7142;SDS011;3613;48.902;9.204;2023-03-23T17:28:13;5.20;;;2.90;;
7142;SDS011;3613;48.902;9.204;2023-03-23T17:30:40;5.47;;;3.27;;
7142;SDS011;3613;48.902;9.204;2023-03-23T17:33:06;4.53;;;2.87;;
7142;SDS011;3613;48.902;9.204;2023-03-23T17:35:32;5.13;;;2.50;;
7142;SDS011;3613;48.902;9.204;2023-03-23T17:37:58;3.67;;;2.70;;
7142;SDS011;3613;48.902;9.204;2023-03-23T17:40:25;4.37;;;3.03;;
7142;SDS011;3613;48.902;9.204;2023-03-23T17:42:54;5.97;;;2.60;;
7142;SDS011;3613;48.902;9.204;2023-03-23T17:45:22;3.83;;;2.57;;
7142;SDS011;3613;48.902;9.204;2023-03-23T17:47:50;2.90;;;2.40;;
7142;SDS011;3613;48.902;9.204;2023-03-23T17:50:15;4.07;;;2.63;;
7142;SDS011;3613;48.902;9.204;2023-03-23T17:52:41;2.93;;;2.30;;
7142;SDS011;3613;48.902;9.204;2023-03-23T17:55:07;3.63;;;3.00;;
7142;SDS011;3613;48.902;9.204;2023-03-23T17:57:35;4.60;;;2.50;;
7142;SDS011;3613;48.902;9.204;2023-03-23T18:00:04;4.43;;;2.47;;
7142;SDS011;3613;48.902;9.204;2023-03-23T18:02:36;3.30;;;2.30;;
7142;SDS011;3613;48.902;9.204;2023-03-23T18:05:02;3.30;;;2.13;;
7142;SDS011;3613;48.902;9.204;2023-03-23T18:07:30;3.23;;;2.20;;
7142;SDS011;3613;48.902;9.204;2023-03-23T18:09:59;2.47;;;2.00;;
7142;SDS011;3613;48.902;9.204;2023-03-23T18:12:25;2.70;;;2.20;;